Terminal Aerodrome Forecast
Issued by NWS

Home | Current Version | Previous Version | Text Only | Print | Product List | Glossary On
Versions: 1 2 3 4 5 6 7 8 9 10 11 12
000
FTUS46 KMTR 061130
TAFSTS
TAF
KSTS 061130Z 0612/0712 VRB03KT P6SM OVC009
     FM061800 19008KT P6SM SCT015
     FM062000 19012KT P6SM FEW250
     FM070300 15006KT P6SM FEW250
     FM070600 VRB03KT P6SM OVC008=

USA.gov is the U.S. government's official web portal to all federal, state and local government web resources and services.